createdAt,value
2017-03-19T00:00:26.825Z,0
2017-03-19T00:01:36.044Z,0
2017-03-19T00:02:45.639Z,0
2017-03-19T00:03:55.186Z,0
2017-03-19T00:05:04.728Z,0
2017-03-19T00:06:13.621Z,0
2017-03-19T00:07:22.839Z,0
2017-03-19T00:08:32.811Z,0
2017-03-19T00:09:42.354Z,0
2017-03-19T00:10:51.252Z,0
2017-03-19T00:12:00.793Z,0
2017-03-19T00:13:10.337Z,0
2017-03-19T00:14:19.527Z,0
2017-03-19T00:15:28.415Z,0
2017-03-19T00:16:37.958Z,0
2017-03-19T00:17:47.171Z,0
2017-03-19T00:18:56.387Z,0
2017-03-19T00:20:06.508Z,0
2017-03-19T00:21:15.496Z,0
2017-03-19T00:22:24.395Z,0
2017-03-19T00:23:34.301Z,0
2017-03-19T00:24:43.195Z,0
2017-03-19T00:25:52.335Z,0
2017-03-19T00:27:01.877Z,0
2017-03-19T00:28:11.744Z,0
2017-03-19T00:29:21.939Z,0
2017-03-19T00:30:31.825Z,0
2017-03-19T00:31:41.020Z,0
2017-03-19T00:32:50.561Z,0
2017-03-19T00:34:00.436Z,0
2017-03-19T00:35:09.650Z,0
2017-03-19T00:36:19.193Z,0
2017-03-19T00:37:28.735Z,0
2017-03-19T00:38:39.260Z,0
2017-03-19T00:39:48.802Z,0
2017-03-19T00:40:57.689Z,0
2017-03-19T00:42:06.580Z,0
2017-03-19T00:43:16.821Z,0
2017-03-19T00:44:26.050Z,0
2017-03-19T00:45:35.273Z,0
2017-03-19T00:46:44.159Z,0
2017-03-19T00:47:53.703Z,0
2017-03-19T00:49:03.297Z,0
2017-03-19T00:50:13.162Z,0
2017-03-19T00:51:22.053Z,0
2017-03-19T00:52:31.631Z,0
2017-03-19T00:53:41.181Z,0
2017-03-19T00:54:51.776Z,0
2017-03-19T00:56:01.642Z,0
2017-03-19T00:57:11.185Z,0
2017-03-19T00:58:20.731Z,0
2017-03-19T00:59:30.287Z,0
2017-03-19T01:00:39.925Z,0
2017-03-19T01:01:49.468Z,0
2017-03-19T01:02:58.687Z,0
2017-03-19T01:04:08.559Z,0
2017-03-19T01:05:17.779Z,0
2017-03-19T01:06:27.045Z,0
2017-03-19T01:07:36.591Z,0
2017-03-19T01:08:46.140Z,0
2017-03-19T01:09:55.719Z,0
2017-03-19T01:11:05.256Z,0
2017-03-19T01:12:14.295Z,0
2017-03-19T01:13:23.846Z,0
2017-03-19T01:14:33.400Z,0
2017-03-19T01:15:42.940Z,0
2017-03-19T01:16:52.157Z,0
2017-03-19T01:18:01.477Z,0
2017-03-19T01:19:11.391Z,0
2017-03-19T01:20:20.934Z,0
2017-03-19T01:21:29.821Z,0
2017-03-19T01:22:39.363Z,0
2017-03-19T01:23:49.161Z,0
2017-03-19T01:24:58.382Z,0
2017-03-19T01:26:07.927Z,0
2017-03-19T01:27:16.817Z,0
2017-03-19T01:28:26.729Z,0
2017-03-19T01:29:35.998Z,0
2017-03-19T01:30:45.537Z,0
2017-03-19T01:31:55.071Z,0
2017-03-19T01:33:04.940Z,0
2017-03-19T01:34:14.489Z,0
2017-03-19T01:35:24.175Z,0
2017-03-19T01:36:33.711Z,0
2017-03-19T01:37:42.938Z,0
2017-03-19T01:38:52.480Z,0
2017-03-19T01:40:02.350Z,0
2017-03-19T01:41:11.389Z,0
2017-03-19T01:42:20.935Z,0
2017-03-19T01:43:30.810Z,0
2017-03-19T01:44:40.035Z,0
2017-03-19T01:45:48.960Z,0
2017-03-19T01:46:57.997Z,0
2017-03-19T01:48:07.540Z,0
2017-03-19T01:49:17.086Z,0
2017-03-19T01:50:26.630Z,0
2017-03-19T01:51:35.848Z,0
2017-03-19T01:52:45.552Z,0
2017-03-19T01:53:54.770Z,0
2017-03-19T01:55:04.339Z,0
2017-03-19T01:56:13.233Z,0
2017-03-19T01:57:23.101Z,0
2017-03-19T01:58:33.274Z,0
2017-03-19T01:59:42.815Z,0
2017-03-19T02:00:52.041Z,0
2017-03-19T02:02:01.911Z,0
2017-03-19T02:03:12.107Z,0
2017-03-19T02:04:21.655Z,0
2017-03-19T02:05:30.878Z,0
2017-03-19T02:06:39.769Z,0
2017-03-19T02:07:48.660Z,0
2017-03-19T02:08:58.534Z,0
2017-03-19T02:10:08.056Z,0
2017-03-19T02:11:16.948Z,0
2017-03-19T02:12:26.169Z,0
2017-03-19T02:13:36.047Z,0
2017-03-19T02:14:45.589Z,0
2017-03-19T02:15:55.758Z,0
2017-03-19T02:17:04.972Z,0
2017-03-19T02:18:15.494Z,0
2017-03-19T02:19:25.385Z,0
2017-03-19T02:20:34.279Z,0
2017-03-19T02:21:43.814Z,0
2017-03-19T02:22:52.715Z,0
2017-03-19T02:24:02.264Z,0
2017-03-19T02:25:12.142Z,0
2017-03-19T02:26:21.355Z,0
2017-03-19T02:27:30.621Z,0
2017-03-19T02:28:40.818Z,0
2017-03-19T02:29:50.682Z,0
2017-03-19T02:31:00.228Z,0
2017-03-19T02:32:09.442Z,0
2017-03-19T02:33:19.612Z,0
2017-03-19T02:34:29.156Z,0
2017-03-19T02:35:38.045Z,0
2017-03-19T02:36:47.261Z,0
2017-03-19T02:37:57.129Z,0
2017-03-19T02:39:06.723Z,0
2017-03-19T02:40:16.262Z,0
2017-03-19T02:41:25.489Z,0
2017-03-19T02:42:35.693Z,0
2017-03-19T02:43:45.237Z,0
2017-03-19T02:44:54.783Z,0
2017-03-19T02:46:03.999Z,0
2017-03-19T02:47:13.538Z,0
2017-03-19T02:48:23.402Z,0
2017-03-19T02:49:32.943Z,0
2017-03-19T02:50:41.980Z,0
2017-03-19T02:51:51.192Z,0
2017-03-19T02:53:00.736Z,0
2017-03-19T02:54:10.603Z,0
2017-03-19T02:55:19.492Z,0
2017-03-19T02:56:28.483Z,0
2017-03-19T02:57:38.353Z,0
2017-03-19T02:58:48.228Z,0
2017-03-19T02:59:58.422Z,0
2017-03-19T03:01:07.967Z,0
2017-03-19T03:02:18.019Z,0
2017-03-19T03:03:27.238Z,0
2017-03-19T03:04:36.788Z,0
2017-03-19T03:05:45.678Z,0
2017-03-19T03:06:54.890Z,0
2017-03-19T03:08:04.529Z,0
2017-03-19T03:09:14.075Z,0
2017-03-19T03:10:23.290Z,0
2017-03-19T03:11:32.503Z,0
2017-03-19T03:12:42.696Z,0
2017-03-19T03:13:52.079Z,0
2017-03-19T03:15:01.625Z,0
2017-03-19T03:16:11.165Z,0
2017-03-19T03:17:20.702Z,0
2017-03-19T03:18:30.581Z,0
2017-03-19T03:19:39.522Z,0
2017-03-19T03:20:48.409Z,0
2017-03-19T03:21:57.303Z,0
2017-03-19T03:23:06.843Z,0
2017-03-19T03:24:17.043Z,0
2017-03-19T03:25:26.739Z,0
2017-03-19T03:26:36.279Z,0
2017-03-19T03:27:46.477Z,0
2017-03-19T03:28:56.350Z,0
2017-03-19T03:30:05.567Z,0
2017-03-19T03:31:14.931Z,0
2017-03-19T03:32:24.800Z,0
2017-03-19T03:33:34.349Z,0
2017-03-19T03:34:44.210Z,0
2017-03-19T03:35:54.080Z,0
2017-03-19T03:37:03.938Z,0
2017-03-19T03:38:13.480Z,0
2017-03-19T03:39:23.022Z,0
2017-03-19T03:40:32.237Z,0
2017-03-19T03:41:41.454Z,0
2017-03-19T03:42:51.247Z,0
2017-03-19T03:44:00.801Z,0
2017-03-19T03:45:09.707Z,0
2017-03-19T03:46:18.922Z,0
2017-03-19T03:47:29.122Z,0
2017-03-19T03:48:38.768Z,0
2017-03-19T03:49:48.309Z,0
2017-03-19T03:50:57.518Z,0
2017-03-19T03:52:06.733Z,0
2017-03-19T03:53:16.283Z,0
2017-03-19T03:54:25.881Z,0
2017-03-19T03:55:35.094Z,0
2017-03-19T03:56:43.988Z,0
2017-03-19T03:57:53.531Z,0
2017-03-19T03:59:03.397Z,0
2017-03-19T04:00:13.086Z,0
2017-03-19T04:01:21.977Z,0
2017-03-19T04:02:31.524Z,0
2017-03-19T04:03:41.394Z,0
2017-03-19T04:04:50.936Z,0
2017-03-19T04:06:00.629Z,0
2017-03-19T04:07:10.167Z,0
2017-03-19T04:08:20.032Z,0
2017-03-19T04:09:29.250Z,0
2017-03-19T04:10:38.465Z,0
2017-03-19T04:11:47.929Z,0
2017-03-19T04:12:57.475Z,0
2017-03-19T04:14:07.352Z,0
2017-03-19T04:15:16.894Z,0
2017-03-19T04:16:26.432Z,0
2017-03-19T04:17:36.698Z,0
2017-03-19T04:18:46.567Z,0
2017-03-19T04:19:55.788Z,0
2017-03-19T04:21:04.674Z,0
2017-03-19T04:22:14.217Z,0
2017-03-19T04:23:24.562Z,0
2017-03-19T04:24:34.104Z,0
2017-03-19T04:25:43.643Z,0
2017-03-19T04:26:52.862Z,0
2017-03-19T04:28:02.085Z,0
2017-03-19T04:29:12.004Z,0
2017-03-19T04:30:21.547Z,0
2017-03-19T04:31:31.098Z,0
2017-03-19T04:32:40.970Z,0
2017-03-19T04:33:50.515Z,0
2017-03-19T04:35:00.434Z,0
2017-03-19T04:36:09.326Z,0
2017-03-19T04:37:19.205Z,0
2017-03-19T04:38:28.759Z,0
2017-03-19T04:39:38.301Z,0
2017-03-19T04:40:47.992Z,0
2017-03-19T04:41:57.206Z,0
2017-03-19T04:43:07.079Z,0
2017-03-19T04:44:17.318Z,0
2017-03-19T04:45:26.855Z,0
2017-03-19T04:46:36.221Z,0
2017-03-19T04:47:45.437Z,0
2017-03-19T04:48:54.986Z,0
2017-03-19T04:50:03.887Z,0
2017-03-19T04:51:13.102Z,0
2017-03-19T04:52:22.465Z,0
2017-03-19T04:53:32.332Z,0
2017-03-19T04:54:42.203Z,0
2017-03-19T04:55:51.421Z,0
2017-03-19T04:57:00.643Z,0
2017-03-19T04:58:10.482Z,0
2017-03-19T04:59:19.698Z,0
2017-03-19T05:00:29.234Z,0
2017-03-19T05:01:38.122Z,0
2017-03-19T05:02:48.313Z,0
2017-03-19T05:03:58.004Z,0
2017-03-19T05:05:07.217Z,0
2017-03-19T05:06:16.757Z,0
2017-03-19T05:07:25.976Z,0
2017-03-19T05:08:35.844Z,0
2017-03-19T05:09:45.864Z,0
2017-03-19T05:10:54.754Z,0
2017-03-19T05:12:03.964Z,0
2017-03-19T05:13:13.823Z,0
2017-03-19T05:14:23.691Z,0
2017-03-19T05:15:33.160Z,0
2017-03-19T05:16:42.701Z,0
2017-03-19T05:17:52.566Z,0
2017-03-19T05:19:01.786Z,0
2017-03-19T05:20:11.327Z,0
2017-03-19T05:21:20.918Z,0
2017-03-19T05:22:30.462Z,0
2017-03-19T05:23:40.015Z,0
2017-03-19T05:24:49.553Z,0
2017-03-19T05:25:59.096Z,0
2017-03-19T05:27:08.137Z,0
2017-03-19T05:28:17.353Z,0
2017-03-19T05:29:27.218Z,0
2017-03-19T05:30:36.754Z,0
2017-03-19T05:31:45.644Z,0
2017-03-19T05:32:55.609Z,0
2017-03-19T05:34:05.472Z,0
2017-03-19T05:35:15.017Z,0
2017-03-19T05:36:23.905Z,5
2017-03-19T05:37:33.442Z,5
2017-03-19T05:38:43.711Z,5
2017-03-19T05:39:52.921Z,5
2017-03-19T05:41:02.468Z,5
2017-03-19T05:42:12.034Z,5
2017-03-19T05:43:22.227Z,5
2017-03-19T05:44:32.142Z,5
2017-03-19T05:45:42.009Z,5
2017-03-19T05:46:51.230Z,10
2017-03-19T05:48:01.096Z,10
2017-03-19T05:49:10.970Z,10
2017-03-19T05:50:20.180Z,10
2017-03-19T05:51:29.725Z,10
2017-03-19T05:52:39.270Z,10
2017-03-19T05:53:49.467Z,10
2017-03-19T05:54:59.340Z,10
2017-03-19T05:56:08.602Z,10
2017-03-19T05:57:18.138Z,10
2017-03-19T05:58:27.357Z,15
2017-03-19T05:59:36.907Z,15
2017-03-19T06:00:46.125Z,15
2017-03-19T06:01:55.486Z,15
2017-03-19T06:03:05.024Z,15
2017-03-19T06:04:14.572Z,15
2017-03-19T06:05:24.107Z,15
2017-03-19T06:06:33.326Z,15
2017-03-19T06:07:43.769Z,15
2017-03-19T06:08:53.305Z,15
2017-03-19T06:10:02.515Z,15
2017-03-19T06:11:11.727Z,20
2017-03-19T06:12:20.938Z,20
2017-03-19T06:13:30.525Z,20
2017-03-19T06:14:40.438Z,20
2017-03-19T06:15:49.976Z,20
2017-03-19T06:16:59.517Z,20
2017-03-19T06:18:08.417Z,20
2017-03-19T06:19:18.711Z,20
2017-03-19T06:20:27.594Z,25
2017-03-19T06:21:36.480Z,20
2017-03-19T06:22:46.676Z,25
2017-03-19T06:23:56.868Z,25
2017-03-19T06:25:06.136Z,25
2017-03-19T06:26:15.351Z,25
2017-03-19T06:27:24.893Z,25
2017-03-19T06:28:34.441Z,25
2017-03-19T06:29:43.663Z,25
2017-03-19T06:30:53.625Z,25
2017-03-19T06:32:02.513Z,25
2017-03-19T06:33:12.378Z,30
2017-03-19T06:34:22.243Z,25
2017-03-19T06:35:31.786Z,25
2017-03-19T06:36:41.030Z,25
2017-03-19T06:37:51.219Z,30
2017-03-19T06:39:00.106Z,35
2017-03-19T06:40:09.318Z,40
2017-03-19T06:41:18.531Z,35
2017-03-19T06:42:27.818Z,35
2017-03-19T06:43:37.032Z,30
2017-03-19T06:44:45.916Z,30
2017-03-19T06:45:54.802Z,35
2017-03-19T06:47:04.026Z,35
2017-03-19T06:48:13.618Z,35
2017-03-19T06:49:23.498Z,35
2017-03-19T06:50:33.372Z,30
2017-03-19T06:51:42.594Z,30
2017-03-19T06:52:52.139Z,30
2017-03-19T06:54:01.833Z,30
2017-03-19T06:55:11.049Z,40
2017-03-19T06:56:20.302Z,40
2017-03-19T06:57:29.197Z,40
2017-03-19T06:58:38.417Z,40
2017-03-19T06:59:48.694Z,40
2017-03-19T07:00:58.227Z,40
2017-03-19T07:02:07.794Z,35
2017-03-19T07:03:17.338Z,35
2017-03-19T07:04:27.530Z,35
2017-03-19T07:05:36.838Z,40
2017-03-19T07:06:46.047Z,50
2017-03-19T07:07:55.603Z,55
2017-03-19T07:09:05.483Z,55
2017-03-19T07:10:14.374Z,55
2017-03-19T07:11:23.516Z,45
2017-03-19T07:12:33.065Z,50
2017-03-19T07:13:42.928Z,45
2017-03-19T07:14:52.799Z,50
2017-03-19T07:16:02.340Z,45
2017-03-19T07:17:11.979Z,50
2017-03-19T07:18:21.526Z,60
2017-03-19T07:19:31.072Z,60
2017-03-19T07:20:40.288Z,50
2017-03-19T07:21:49.173Z,50
2017-03-19T07:22:59.129Z,50
2017-03-19T07:24:08.345Z,50
2017-03-19T07:25:17.569Z,45
2017-03-19T07:26:26.465Z,45
2017-03-19T07:27:36.010Z,45
2017-03-19T07:28:46.254Z,45
2017-03-19T07:29:55.797Z,45
2017-03-19T07:31:04.685Z,45
2017-03-19T07:32:13.902Z,50
2017-03-19T07:33:23.771Z,50
2017-03-19T07:34:33.064Z,55
2017-03-19T07:35:42.289Z,55
2017-03-19T07:36:51.836Z,50
2017-03-19T07:38:01.378Z,50
2017-03-19T07:39:10.593Z,55
2017-03-19T07:40:20.935Z,60
2017-03-19T07:41:30.146Z,65
2017-03-19T07:42:40.041Z,60
2017-03-19T07:43:49.591Z,45
2017-03-19T07:44:59.140Z,50
2017-03-19T07:46:09.156Z,55
2017-03-19T07:47:18.043Z,55
2017-03-19T07:48:27.904Z,60
2017-03-19T07:49:37.126Z,65
2017-03-19T07:50:46.338Z,65
2017-03-19T07:51:55.605Z,70
2017-03-19T07:53:05.801Z,80
2017-03-19T07:54:15.338Z,90
2017-03-19T07:55:24.229Z,85
2017-03-19T07:56:33.443Z,80
2017-03-19T07:57:43.503Z,80
2017-03-19T07:58:53.378Z,80
2017-03-19T08:00:02.596Z,65
2017-03-19T08:01:12.459Z,60
2017-03-19T08:02:21.681Z,65
2017-03-19T08:03:31.922Z,65
2017-03-19T08:04:41.476Z,60
2017-03-19T08:05:50.365Z,65
2017-03-19T08:06:59.255Z,75
2017-03-19T08:08:08.839Z,80
2017-03-19T08:09:19.037Z,95
2017-03-19T08:10:28.634Z,100
2017-03-19T08:11:37.763Z,95
2017-03-19T08:12:47.775Z,95
2017-03-19T08:13:57.630Z,105
2017-03-19T08:15:06.968Z,105
2017-03-19T08:16:16.213Z,115
2017-03-19T08:17:25.514Z,110
2017-03-19T08:18:36.059Z,125
2017-03-19T08:19:45.593Z,115
2017-03-19T08:20:54.808Z,125
2017-03-19T08:22:04.055Z,115
2017-03-19T08:23:13.931Z,105
2017-03-19T08:24:23.527Z,120
2017-03-19T08:25:32.752Z,105
2017-03-19T08:26:42.296Z,105
2017-03-19T08:27:52.163Z,120
2017-03-19T08:29:02.028Z,130
2017-03-19T08:30:11.247Z,125
2017-03-19T08:31:20.461Z,135
2017-03-19T08:32:29.680Z,145
2017-03-19T08:33:39.552Z,160
2017-03-19T08:34:48.926Z,165
2017-03-19T08:35:58.463Z,160
2017-03-19T08:37:07.997Z,140
2017-03-19T08:38:17.904Z,130
2017-03-19T08:39:28.436Z,130
2017-03-19T08:40:38.030Z,150
2017-03-19T08:41:47.571Z,150
2017-03-19T08:42:57.445Z,165
2017-03-19T08:44:06.659Z,160
2017-03-19T08:45:16.201Z,150
2017-03-19T08:46:25.463Z,140
2017-03-19T08:47:35.005Z,145
2017-03-19T08:48:44.872Z,145
2017-03-19T08:49:54.739Z,130
2017-03-19T08:51:03.951Z,130
2017-03-19T08:52:13.519Z,125
2017-03-19T08:53:23.712Z,140
2017-03-19T08:54:33.577Z,135
2017-03-19T08:55:42.789Z,135
2017-03-19T08:56:51.677Z,125
2017-03-19T08:58:00.732Z,130
2017-03-19T08:59:09.967Z,145
2017-03-19T09:00:19.185Z,135
2017-03-19T09:01:28.407Z,130
2017-03-19T09:02:37.947Z,160
2017-03-19T09:03:47.972Z,205
2017-03-19T09:04:57.512Z,190
2017-03-19T09:06:06.412Z,200
2017-03-19T09:07:15.628Z,195
2017-03-19T09:08:24.860Z,165
2017-03-19T09:09:35.170Z,200
2017-03-19T09:10:44.383Z,200
2017-03-19T09:11:53.275Z,175
2017-03-19T09:13:02.159Z,170
2017-03-19T09:14:11.375Z,155
2017-03-19T09:15:20.640Z,150
2017-03-19T09:16:29.864Z,165
2017-03-19T09:17:39.760Z,135
2017-03-19T09:18:49.630Z,150
2017-03-19T09:19:59.827Z,145
2017-03-19T09:21:08.869Z,140
2017-03-19T09:22:19.071Z,145
2017-03-19T09:23:28.948Z,150
2017-03-19T09:24:38.498Z,125
2017-03-19T09:25:48.040Z,125
2017-03-19T09:26:56.976Z,130
2017-03-19T09:28:06.575Z,150
2017-03-19T09:29:15.795Z,160
2017-03-19T09:30:25.060Z,125
2017-03-19T09:31:34.554Z,125
2017-03-19T09:32:43.789Z,130
2017-03-19T09:33:53.314Z,135
2017-03-19T09:35:02.868Z,115
2017-03-19T09:36:12.093Z,110
2017-03-19T09:37:21.320Z,110
2017-03-19T09:38:30.539Z,95
2017-03-19T09:39:39.795Z,105
2017-03-19T09:40:48.698Z,90
2017-03-19T09:41:57.923Z,90
2017-03-19T09:43:06.830Z,80
2017-03-19T09:44:16.863Z,85
2017-03-19T09:45:26.416Z,105
2017-03-19T09:46:35.978Z,120
2017-03-19T09:47:44.876Z,165
2017-03-19T09:48:53.785Z,150
2017-03-19T09:50:03.067Z,160
2017-03-19T09:51:12.623Z,205
2017-03-19T09:52:21.528Z,210
2017-03-19T09:53:31.096Z,165
2017-03-19T09:54:41.042Z,150
2017-03-19T09:55:50.329Z,175
2017-03-19T09:56:59.559Z,230
2017-03-19T09:58:08.788Z,165
2017-03-19T09:59:18.337Z,135
2017-03-19T10:00:27.897Z,120
2017-03-19T10:01:37.286Z,130
2017-03-19T10:02:47.163Z,115
2017-03-19T10:03:56.072Z,120
2017-03-19T10:05:05.951Z,130
2017-03-19T10:06:14.850Z,110
2017-03-19T10:07:24.454Z,125
2017-03-19T10:08:34.018Z,105
2017-03-19T10:09:43.248Z,120
2017-03-19T10:10:52.148Z,125
2017-03-19T10:12:01.052Z,120
2017-03-19T10:13:10.659Z,135
2017-03-19T10:14:20.222Z,140
2017-03-19T10:15:29.448Z,140
2017-03-19T10:16:38.672Z,130
2017-03-19T10:17:47.576Z,155
2017-03-19T10:18:56.852Z,175
2017-03-19T10:20:06.732Z,215
2017-03-19T10:21:15.634Z,205
2017-03-19T10:22:25.180Z,240
2017-03-19T10:23:34.417Z,215
2017-03-19T10:24:43.704Z,235
2017-03-19T10:25:52.610Z,200
2017-03-19T10:27:02.483Z,215
2017-03-19T10:28:12.043Z,190
2017-03-19T10:29:21.287Z,220
2017-03-19T10:30:30.440Z,195
2017-03-19T10:31:39.337Z,215
2017-03-19T10:32:48.580Z,175
2017-03-19T10:33:58.142Z,185
2017-03-19T10:35:07.372Z,185
2017-03-19T10:36:16.750Z,215
2017-03-19T10:37:25.980Z,210
2017-03-19T10:38:35.867Z,235
2017-03-19T10:39:44.768Z,260
2017-03-19T10:40:54.006Z,270
2017-03-19T10:42:03.282Z,275
2017-03-19T10:43:12.190Z,280
2017-03-19T10:44:21.752Z,250
2017-03-19T10:45:30.993Z,220
2017-03-19T10:46:40.245Z,285
2017-03-19T10:47:49.311Z,260
2017-03-19T10:48:59.213Z,285
2017-03-19T10:50:08.117Z,280
2017-03-19T10:51:17.021Z,255
2017-03-19T10:52:25.922Z,245
2017-03-19T10:53:35.585Z,315
2017-03-19T10:54:45.143Z,275
2017-03-19T10:55:54.091Z,235
2017-03-19T10:57:03.023Z,265
2017-03-19T10:58:11.945Z,295
2017-03-19T10:59:21.571Z,285
2017-03-19T11:00:30.472Z,295
2017-03-19T11:01:39.363Z,295
2017-03-19T11:02:48.914Z,325
2017-03-19T11:03:58.465Z,320
2017-03-19T11:05:08.157Z,350
2017-03-19T11:06:17.409Z,285
2017-03-19T11:07:26.955Z,310
2017-03-19T11:08:36.834Z,340
2017-03-19T11:09:46.051Z,345
2017-03-19T11:10:55.572Z,330
2017-03-19T11:12:05.763Z,345
2017-03-19T11:13:14.986Z,320
2017-03-19T11:14:24.864Z,360
2017-03-19T11:15:33.758Z,400
2017-03-19T11:16:42.950Z,325
2017-03-19T11:17:52.516Z,325
2017-03-19T11:19:02.388Z,360
2017-03-19T11:20:11.278Z,360
2017-03-19T11:21:20.494Z,260
2017-03-19T11:22:29.965Z,240
2017-03-19T11:23:39.839Z,315
2017-03-19T11:24:49.393Z,265
2017-03-19T11:25:58.937Z,235
2017-03-19T11:27:08.155Z,235
2017-03-19T11:28:18.073Z,215
2017-03-19T11:29:27.628Z,215
2017-03-19T11:30:36.844Z,200
2017-03-19T11:31:45.735Z,205
2017-03-19T11:32:55.634Z,225
2017-03-19T11:34:05.341Z,190
2017-03-19T11:35:14.565Z,230
2017-03-19T11:36:23.457Z,185
2017-03-19T11:37:33.663Z,180
2017-03-19T11:38:43.215Z,190
2017-03-19T11:39:52.306Z,215
2017-03-19T11:41:02.178Z,185
2017-03-19T11:42:11.397Z,210
2017-03-19T11:43:20.948Z,170
2017-03-19T11:44:31.141Z,165
2017-03-19T11:45:40.647Z,195
2017-03-19T11:46:50.194Z,190
2017-03-19T11:48:00.067Z,155
2017-03-19T11:49:08.960Z,175
2017-03-19T11:50:18.175Z,210
2017-03-19T11:51:27.541Z,200
2017-03-19T11:52:37.079Z,225
2017-03-19T11:53:46.621Z,230
2017-03-19T11:54:56.492Z,230
2017-03-19T11:56:06.033Z,270
2017-03-19T11:57:15.677Z,260
2017-03-19T11:58:24.895Z,235
2017-03-19T11:59:34.765Z,230
2017-03-19T12:00:44.961Z,265
2017-03-19T12:01:53.852Z,265
2017-03-19T12:03:02.793Z,320
2017-03-19T12:04:12.663Z,325
2017-03-19T12:05:21.880Z,270
2017-03-19T12:06:31.099Z,385
2017-03-19T12:07:40.316Z,370
2017-03-19T12:08:50.050Z,425
2017-03-19T12:09:59.596Z,510
2017-03-19T12:11:09.139Z,500
2017-03-19T12:12:19.008Z,580
2017-03-19T12:13:28.557Z,600
2017-03-19T12:14:38.246Z,595
2017-03-19T12:15:47.459Z,580
2017-03-19T12:16:56.675Z,520
2017-03-19T12:18:06.549Z,485
2017-03-19T12:19:16.103Z,365
2017-03-19T12:20:25.563Z,300
2017-03-19T12:21:34.781Z,225
2017-03-19T12:22:44.010Z,245
2017-03-19T12:23:54.216Z,285
2017-03-19T12:25:04.416Z,255
2017-03-19T12:26:13.362Z,205
2017-03-19T12:27:22.256Z,210
2017-03-19T12:28:31.808Z,245
2017-03-19T12:29:41.673Z,245
2017-03-19T12:30:50.571Z,250
2017-03-19T12:32:00.421Z,310
2017-03-19T12:33:10.621Z,225
2017-03-19T12:34:20.167Z,145
2017-03-19T12:35:29.385Z,155
2017-03-19T12:36:38.604Z,165
2017-03-19T12:37:48.003Z,160
2017-03-19T12:38:57.553Z,240
2017-03-19T12:40:06.772Z,250
2017-03-19T12:41:16.311Z,215
2017-03-19T12:42:26.212Z,240
2017-03-19T12:43:35.861Z,245
2017-03-19T12:44:45.759Z,175
2017-03-19T12:45:54.976Z,185
2017-03-19T12:47:04.192Z,220
2017-03-19T12:48:14.391Z,230
2017-03-19T12:49:23.762Z,235
2017-03-19T12:50:33.957Z,265
2017-03-19T12:51:43.171Z,215
2017-03-19T12:52:52.068Z,180
2017-03-19T12:54:01.942Z,155
2017-03-19T12:55:11.263Z,115
2017-03-19T12:56:20.158Z,145
2017-03-19T12:57:29.051Z,280
2017-03-19T12:58:39.247Z,285
2017-03-19T12:59:48.790Z,155
2017-03-19T13:00:58.479Z,145
2017-03-19T13:02:08.351Z,180
2017-03-19T13:03:18.218Z,265
2017-03-19T13:04:27.769Z,255
2017-03-19T13:05:37.313Z,140
2017-03-19T13:06:47.443Z,115
2017-03-19T13:07:56.994Z,130
2017-03-19T13:09:07.193Z,140
2017-03-19T13:10:16.733Z,145
2017-03-19T13:11:25.948Z,175
2017-03-19T13:12:35.315Z,175
2017-03-19T13:13:45.233Z,230
2017-03-19T13:14:54.786Z,270
2017-03-19T13:16:04.330Z,260
2017-03-19T13:17:13.556Z,310
2017-03-19T13:18:22.927Z,280
2017-03-19T13:19:32.478Z,250
2017-03-19T13:20:42.024Z,250
2017-03-19T13:21:51.568Z,280
2017-03-19T13:23:01.118Z,325
2017-03-19T13:24:10.771Z,325
2017-03-19T13:25:19.995Z,255
2017-03-19T13:26:28.926Z,290
2017-03-19T13:27:38.144Z,300
2017-03-19T13:28:48.342Z,325
2017-03-19T13:29:57.939Z,270
2017-03-19T13:31:07.481Z,285
2017-03-19T13:32:16.695Z,255
2017-03-19T13:33:26.242Z,305
2017-03-19T13:35:07.879Z,290
2017-03-19T13:36:17.109Z,195
2017-03-19T13:37:26.007Z,185
2017-03-19T13:38:35.555Z,205
2017-03-19T13:39:45.120Z,280
2017-03-19T13:40:54.810Z,260
2017-03-19T13:42:03.707Z,175
2017-03-19T13:43:12.937Z,175
2017-03-19T13:44:22.857Z,175
2017-03-19T13:45:32.068Z,140
2017-03-19T13:46:41.046Z,170
2017-03-19T13:47:50.593Z,160
2017-03-19T13:49:00.139Z,150
2017-03-19T13:50:09.030Z,165
2017-03-19T13:51:17.917Z,135
2017-03-19T13:52:27.459Z,120
2017-03-19T13:53:37.334Z,130
2017-03-19T13:54:47.532Z,110
2017-03-19T13:55:56.421Z,115
2017-03-19T13:57:06.616Z,120
2017-03-19T13:58:16.404Z,105
2017-03-19T13:59:26.277Z,110
2017-03-19T14:00:35.198Z,130
2017-03-19T14:01:44.781Z,150
2017-03-19T14:02:53.677Z,140
2017-03-19T14:04:03.320Z,160
2017-03-19T14:05:12.890Z,175
2017-03-19T14:06:21.816Z,175
2017-03-19T14:07:30.712Z,160
2017-03-19T14:08:40.587Z,170
2017-03-19T14:09:50.480Z,175
2017-03-19T14:10:59.370Z,170
2017-03-19T14:12:08.262Z,210
2017-03-19T14:13:17.483Z,180
2017-03-19T14:14:27.069Z,195
2017-03-19T14:15:36.034Z,165
2017-03-19T14:16:45.255Z,190
2017-03-19T14:17:55.128Z,145
2017-03-19T14:19:04.674Z,125
2017-03-19T14:20:14.870Z,140
2017-03-19T14:21:24.661Z,130
2017-03-19T14:22:33.560Z,115
2017-03-19T14:23:43.432Z,125
2017-03-19T14:24:52.655Z,115
2017-03-19T14:26:01.872Z,110
2017-03-19T14:27:11.236Z,120
2017-03-19T14:28:20.792Z,140
2017-03-19T14:29:30.014Z,115
2017-03-19T14:30:38.911Z,110
2017-03-19T14:31:48.133Z,130
2017-03-19T14:32:57.875Z,130
2017-03-19T14:34:07.416Z,120
2017-03-19T14:35:16.322Z,135
2017-03-19T14:36:25.216Z,120
2017-03-19T14:37:34.428Z,95
2017-03-19T14:38:44.034Z,110
2017-03-19T14:39:53.257Z,95
2017-03-19T14:41:02.804Z,90
2017-03-19T14:42:12.022Z,115
2017-03-19T14:43:21.895Z,120
2017-03-19T14:44:31.220Z,110
2017-03-19T14:45:40.436Z,105
2017-03-19T14:46:50.302Z,95
2017-03-19T14:47:59.846Z,95
2017-03-19T14:49:09.399Z,100
2017-03-19T14:50:19.321Z,85
2017-03-19T14:51:28.552Z,100
2017-03-19T14:52:38.101Z,85
2017-03-19T14:53:48.024Z,80
2017-03-19T14:54:57.250Z,75
2017-03-19T14:56:06.519Z,90
2017-03-19T14:57:15.742Z,105
2017-03-19T14:58:25.618Z,75
2017-03-19T14:59:35.486Z,120
2017-03-19T15:00:44.706Z,110
2017-03-19T15:01:54.413Z,110
2017-03-19T15:03:04.292Z,120
2017-03-19T15:04:13.515Z,100
2017-03-19T15:05:22.408Z,105
2017-03-19T15:06:31.624Z,90
2017-03-19T15:07:40.769Z,85
2017-03-19T15:08:50.315Z,85
2017-03-19T15:09:59.542Z,85
2017-03-19T15:11:08.436Z,90
2017-03-19T15:12:17.650Z,115
2017-03-19T15:13:27.540Z,110
2017-03-19T15:14:37.751Z,115
2017-03-19T15:15:46.644Z,120
2017-03-19T15:16:55.538Z,140
2017-03-19T15:18:05.409Z,130
2017-03-19T15:19:15.624Z,115
2017-03-19T15:20:25.493Z,135
2017-03-19T15:21:34.711Z,125
2017-03-19T15:22:43.934Z,110
2017-03-19T15:23:53.474Z,110
2017-03-19T15:25:03.347Z,95
2017-03-19T15:26:12.239Z,90
2017-03-19T15:27:21.460Z,80
2017-03-19T15:28:31.347Z,60
2017-03-19T15:29:41.218Z,75
2017-03-19T15:30:50.909Z,75
2017-03-19T15:32:00.130Z,80
2017-03-19T15:33:09.352Z,100
2017-03-19T15:34:19.583Z,75
2017-03-19T15:35:28.479Z,80
2017-03-19T15:36:37.841Z,80
2017-03-19T15:37:47.380Z,110
2017-03-19T15:38:56.287Z,105
2017-03-19T15:40:05.834Z,105
2017-03-19T15:41:15.051Z,100
2017-03-19T15:42:24.323Z,95
2017-03-19T15:43:33.878Z,85
2017-03-19T15:44:43.426Z,85
2017-03-19T15:45:52.319Z,80
2017-03-19T15:47:01.541Z,105
2017-03-19T15:48:11.563Z,100
2017-03-19T15:49:21.764Z,115
2017-03-19T15:50:31.635Z,105
2017-03-19T15:51:40.527Z,95
2017-03-19T15:52:50.081Z,105
2017-03-19T15:53:59.682Z,100
2017-03-19T15:55:09.226Z,85
2017-03-19T15:56:18.227Z,80
2017-03-19T15:57:27.804Z,65
2017-03-19T15:58:36.706Z,75
2017-03-19T15:59:46.330Z,80
2017-03-19T16:00:55.223Z,75
2017-03-19T16:02:04.439Z,60
2017-03-19T16:03:13.671Z,90
2017-03-19T16:04:22.894Z,80
2017-03-19T16:05:32.587Z,50
2017-03-19T16:06:41.477Z,40
2017-03-19T16:07:50.725Z,45
2017-03-19T16:09:00.593Z,50
2017-03-19T16:10:10.142Z,45
2017-03-19T16:11:19.932Z,35
2017-03-19T16:12:29.153Z,45
2017-03-19T16:13:38.371Z,45
2017-03-19T16:14:47.598Z,65
2017-03-19T16:15:56.813Z,55
2017-03-19T16:17:06.179Z,45
2017-03-19T16:18:15.737Z,45
2017-03-19T16:19:25.284Z,45
2017-03-19T16:20:34.826Z,50
2017-03-19T16:21:44.053Z,50
2017-03-19T16:22:53.981Z,50
2017-03-19T16:24:03.529Z,40
2017-03-19T16:25:12.746Z,40
2017-03-19T16:26:22.006Z,35
2017-03-19T16:27:32.203Z,40
2017-03-19T16:28:41.901Z,40